Pagrindinis puslapis
METAR-TAF:

METAR-TAF

Oro uostai :

Ponapė, Mikronezija

platuma: 06-59N, ilguma: 158-12E, Aukštis: 2 m

Dabartinis oras

Ataskaita buvo paskelbta 17 valandos ir 58 minutes, ne 03:54 UTC
Vėjas 15 kt iš Rytų/Šiaurės Rytų
Temperatūra 31°C
Drėgmė 75%
Slėgis 1007 hPa
Matomumas: 24.1 km
Su prošvaistėmis ne aukštis 1800 ft, aukštai iškilę kamuoliniai debesys.
Su prošvaistėmis ne aukštis 13000 ft
Apsiniaukę ne aukštis 30000 ft

METAR: PTPN 200354Z 06015KT 15SM BKN018TCU BKN130 OVC300 31/26 A2975 RMK TCU SE-SW LAST

Laikas: 08:52 (21:52 UTC)

Prognozė

Ataskaita buvo paskelbta 22 valandos ir 27 minutes, ne 23:25 UTC
Prognozė galioja nuo 20 metu 00 UTC su 20 metu 24 UTC
Vėjas 14 kt iš Rytų/Šiaurės Rytų
Matomumas: 10 km
Išsisklaidę debesys ne aukštis 1800 ft
Su prošvaistėmis ne aukštis 14000 ft
Liūtis kaimynystėje
Laikinai
nuo 20 metu 00 UTC su 20 metu 03 UTC
Matomumas: 8.0 km
Su prošvaistėmis ne aukštis 1800 ft
Su prošvaistėmis ne aukštis 12000 ft
lietus

TAF: PTPN 192325Z 2000/2024 07014KT P6SM VCSH SCT018 BKN140 TEMPO 2000/2003 5SM SHRA BKN018 BKN120

Orai ataskaitas ir orų prognozės (METAR, TAF).

turimą stotys yra geltonos ir raudonos taškus žemėlapyje.

Perkelti pele per norėdami pamatyti stoties vardą.

Tada spustelėkite, norėdami matyti oro stebėjimo ir prognozės.

Norėdami pakeisti žemėlapį: spustelėkite ant žalios mygtukų su juodo kryžiaus žemyn,; žalią mygtuką su brūkšneliu, jei norite nutolinti; arba žalių rodyklių gretimoms žemėlapius.


METAR-TAF: